createdAt,value
2018-03-24T00:00:02.186Z,4.03
2018-03-24T00:02:31.476Z,4.10
2018-03-24T00:05:00.260Z,4.15
2018-03-24T00:07:29.338Z,4.16
2018-03-24T00:09:58.722Z,4.13
2018-03-24T00:12:29.779Z,4.09
2018-03-24T00:14:59.129Z,4.11
2018-03-24T00:17:28.121Z,4.07
2018-03-24T00:19:57.347Z,3.91
2018-03-24T00:22:26.059Z,3.86
2018-03-24T00:24:55.514Z,3.75
2018-03-24T00:27:24.872Z,3.80
2018-03-24T00:29:53.791Z,3.72
2018-03-24T00:32:23.392Z,3.72
2018-03-24T00:34:52.777Z,3.64
2018-03-24T00:37:22.267Z,3.71
2018-03-24T00:39:51.474Z,3.70
2018-03-24T00:42:20.468Z,3.70
2018-03-24T00:44:49.043Z,3.61
2018-03-24T00:47:18.928Z,3.75
2018-03-24T00:49:48.554Z,3.57
2018-03-24T00:52:18.821Z,3.57
2018-03-24T00:54:48.222Z,3.42
2018-03-24T00:57:18.057Z,3.28
2018-03-24T00:59:47.997Z,3.23
2018-03-24T01:02:16.735Z,3.25
2018-03-24T01:04:45.369Z,3.22
2018-03-24T01:07:14.061Z,3.25
2018-03-24T01:09:42.960Z,3.19
2018-03-24T01:12:12.012Z,3.17
2018-03-24T01:14:40.930Z,3.08
2018-03-24T01:17:09.558Z,3.01
2018-03-24T01:19:38.403Z,2.93
2018-03-24T01:22:06.832Z,2.91
2018-03-24T01:24:36.672Z,2.91
2018-03-24T01:27:06.546Z,2.82
2018-03-24T01:29:35.035Z,2.78
2018-03-24T01:32:03.763Z,2.74
2018-03-24T01:34:32.507Z,2.74
2018-03-24T01:37:01.302Z,2.75
2018-03-24T01:39:30.399Z,2.79
2018-03-24T01:41:59.210Z,2.79
2018-03-24T01:44:27.623Z,2.64
2018-03-24T01:46:56.553Z,2.57
2018-03-24T01:49:25.194Z,2.59
2018-03-24T01:51:54.196Z,2.58
2018-03-24T01:54:22.762Z,2.48
2018-03-24T01:56:51.727Z,2.43
2018-03-24T01:59:19.980Z,2.38
2018-03-24T02:01:48.324Z,2.37
2018-03-24T02:04:17.172Z,2.39
2018-03-24T02:06:46.229Z,2.31
2018-03-24T02:09:15.240Z,2.32
2018-03-24T02:11:44.355Z,2.35
2018-03-24T02:14:13.646Z,2.27
2018-03-24T02:16:42.864Z,2.26
2018-03-24T02:19:11.547Z,2.32
2018-03-24T02:21:41.021Z,2.32
2018-03-24T02:24:10.127Z,2.28
2018-03-24T02:26:39.428Z,2.21
2018-03-24T02:29:08.959Z,2.22
2018-03-24T02:31:37.943Z,2.22
2018-03-24T02:34:08.133Z,2.16
2018-03-24T02:36:37.633Z,2.18
2018-03-24T02:39:06.472Z,2.30
2018-03-24T02:41:35.494Z,2.18
2018-03-24T02:44:05.077Z,2.03
2018-03-24T02:46:34.536Z,1.90
2018-03-24T02:49:03.092Z,1.89
2018-03-24T02:51:31.856Z,1.85
2018-03-24T02:54:01.040Z,1.68
2018-03-24T02:56:29.980Z,1.67
2018-03-24T02:58:58.824Z,1.69
2018-03-24T03:01:28.359Z,1.58
2018-03-24T03:03:57.871Z,1.49
2018-03-24T03:06:27.138Z,1.39
2018-03-24T03:08:56.359Z,1.41
2018-03-24T03:11:25.662Z,1.38
2018-03-24T03:13:55.476Z,1.43
2018-03-24T03:16:24.295Z,1.40
2018-03-24T03:18:53.374Z,1.30
2018-03-24T03:21:23.812Z,1.30
2018-03-24T03:23:52.572Z,1.29
2018-03-24T03:26:22.067Z,1.15
2018-03-24T03:28:51.047Z,1.11
2018-03-24T03:31:20.582Z,1.06
2018-03-24T03:33:49.591Z,0.96
2018-03-24T03:36:18.441Z,1.03
2018-03-24T03:38:46.814Z,0.99
2018-03-24T03:41:15.397Z,1.00
2018-03-24T03:43:44.121Z,0.97
2018-03-24T03:46:12.796Z,1.02
2018-03-24T03:48:41.465Z,1.08
2018-03-24T03:51:10.221Z,0.97
2018-03-24T03:53:38.948Z,0.98
2018-03-24T03:56:07.734Z,1.12
2018-03-24T03:58:37.208Z,1.22
2018-03-24T04:01:08.467Z,1.18
2018-03-24T04:03:38.045Z,1.07
2018-03-24T04:06:07.844Z,0.97
2018-03-24T04:08:36.350Z,0.92
2018-03-24T04:11:07.377Z,0.94
2018-03-24T04:13:36.382Z,0.97
2018-03-24T04:16:06.390Z,0.93
2018-03-24T04:18:35.931Z,0.91
2018-03-24T04:21:06.186Z,0.96
2018-03-24T04:23:35.916Z,1.15
2018-03-24T04:26:05.080Z,1.22
2018-03-24T04:28:34.669Z,1.33
2018-03-24T04:31:04.161Z,1.05
2018-03-24T04:33:34.114Z,0.95
2018-03-24T04:36:02.744Z,0.81
2018-03-24T04:38:32.073Z,0.69
2018-03-24T04:41:01.437Z,0.92
2018-03-24T04:43:30.439Z,0.97
2018-03-24T04:46:00.016Z,0.75
2018-03-24T04:48:30.515Z,0.53
2018-03-24T04:51:00.090Z,0.39
2018-03-24T04:53:29.611Z,0.34
2018-03-24T04:55:59.218Z,0.08
2018-03-24T04:58:29.421Z,0.04
2018-03-24T05:00:58.465Z,0.09
2018-03-24T05:03:27.895Z,-0.01
2018-03-24T05:05:57.031Z,0.02
2018-03-24T05:08:27.275Z,-0.04
2018-03-24T05:10:56.974Z,-0.12
2018-03-24T05:13:28.995Z,-0.13
2018-03-24T05:15:58.596Z,-0.15
2018-03-24T05:18:28.168Z,-0.26
2018-03-24T05:20:56.981Z,-0.28
2018-03-24T05:23:26.204Z,-0.22
2018-03-24T05:25:55.454Z,-0.17
2018-03-24T05:28:23.877Z,-0.25
2018-03-24T05:30:53.164Z,-0.36
2018-03-24T05:33:22.481Z,-0.40
2018-03-24T05:35:51.569Z,-0.36
2018-03-24T05:38:20.982Z,-0.34
2018-03-24T05:40:50.202Z,-0.31
2018-03-24T05:43:19.219Z,-0.28
2018-03-24T05:45:48.934Z,-0.17
2018-03-24T05:48:19.117Z,-0.15
2018-03-24T05:50:48.964Z,-0.08
2018-03-24T05:53:18.148Z,0.06
2018-03-24T05:55:47.595Z,0.12
2018-03-24T05:58:16.001Z,0.27
2018-03-24T06:00:44.203Z,0.36
2018-03-24T06:03:12.266Z,0.55
2018-03-24T06:05:40.165Z,0.78
2018-03-24T06:08:09.413Z,0.98
2018-03-24T06:10:38.416Z,0.95
2018-03-24T06:13:08.094Z,0.90
2018-03-24T06:15:37.373Z,1.08
2018-03-24T06:18:05.371Z,1.18
2018-03-24T06:20:35.275Z,1.18
2018-03-24T06:23:04.229Z,1.00
2018-03-24T06:25:33.067Z,1.15
2018-03-24T06:28:02.023Z,1.33
2018-03-24T06:30:32.122Z,1.43
2018-03-24T06:33:01.094Z,1.62
2018-03-24T06:35:29.824Z,1.89
2018-03-24T06:37:58.505Z,2.13
2018-03-24T06:40:27.228Z,2.23
2018-03-24T06:42:56.841Z,2.36
2018-03-24T06:45:26.348Z,2.46
2018-03-24T06:47:55.091Z,2.51
2018-03-24T06:50:23.172Z,2.61
2018-03-24T06:52:51.889Z,2.77
2018-03-24T06:55:20.492Z,2.62
2018-03-24T06:57:47.914Z,2.48
2018-03-24T07:00:15.339Z,2.51
2018-03-24T07:02:42.816Z,2.16
2018-03-24T07:05:11.702Z,2.05
2018-03-24T07:07:40.908Z,2.17
2018-03-24T07:10:10.593Z,2.06
2018-03-24T07:12:39.244Z,1.96
2018-03-24T07:15:08.722Z,2.07
2018-03-24T07:17:37.987Z,2.17
2018-03-24T07:20:07.536Z,2.48
2018-03-24T07:22:36.800Z,2.81
2018-03-24T07:25:05.216Z,3.16
2018-03-24T07:27:34.479Z,3.34
2018-03-24T07:30:03.028Z,3.29
2018-03-24T07:32:32.082Z,3.30
2018-03-24T07:35:00.693Z,3.73
2018-03-24T07:37:30.142Z,3.77
2018-03-24T07:39:59.319Z,3.74
2018-03-24T07:42:28.124Z,3.67
2018-03-24T07:44:57.368Z,3.57
2018-03-24T07:47:26.954Z,3.63
2018-03-24T07:49:54.507Z,3.68
2018-03-24T07:52:23.449Z,3.63
2018-03-24T07:54:52.172Z,3.68
2018-03-24T07:57:20.944Z,3.81
2018-03-24T07:59:50.195Z,4.06
2018-03-24T08:02:19.163Z,4.17
2018-03-24T08:04:48.069Z,4.13
2018-03-24T08:07:16.848Z,4.13
2018-03-24T08:09:45.222Z,4.35
2018-03-24T08:12:14.935Z,4.73
2018-03-24T08:14:43.309Z,4.70
2018-03-24T08:17:12.899Z,4.69
2018-03-24T08:19:41.485Z,4.93
2018-03-24T08:22:10.472Z,5.12
2018-03-24T08:24:38.913Z,5.38
2018-03-24T08:27:07.587Z,5.35
2018-03-24T08:29:36.442Z,5.03
2018-03-24T08:32:05.195Z,5.29
2018-03-24T08:34:33.950Z,5.29
2018-03-24T08:37:02.775Z,5.16
2018-03-24T08:39:31.111Z,5.37
2018-03-24T08:42:00.050Z,5.30
2018-03-24T08:44:28.631Z,5.33
2018-03-24T08:46:57.598Z,5.41
2018-03-24T08:49:26.821Z,5.66
2018-03-24T08:51:55.681Z,5.68
2018-03-24T08:54:24.124Z,5.65
2018-03-24T08:56:52.261Z,5.85
2018-03-24T08:59:22.054Z,5.96
2018-03-24T09:01:51.331Z,6.01
2018-03-24T09:04:20.239Z,6.22
2018-03-24T09:06:49.200Z,6.21
2018-03-24T09:09:18.094Z,6.41
2018-03-24T09:11:46.603Z,6.58
2018-03-24T09:14:15.196Z,6.57
2018-03-24T09:16:44.753Z,6.14
2018-03-24T09:19:13.754Z,6.58
2018-03-24T09:21:42.465Z,7.01
2018-03-24T09:24:11.125Z,7.07
2018-03-24T09:26:39.561Z,7.13
2018-03-24T09:29:08.642Z,7.33
2018-03-24T09:31:37.902Z,7.52
2018-03-24T09:34:06.831Z,7.65
2018-03-24T09:36:36.838Z,8.12
2018-03-24T09:39:05.796Z,8.08
2018-03-24T09:41:34.301Z,8.46
2018-03-24T09:44:04.231Z,8.80
2018-03-24T09:46:33.723Z,8.82
2018-03-24T09:49:02.855Z,8.72
2018-03-24T09:51:31.839Z,8.87
2018-03-24T09:54:00.573Z,8.77
2018-03-24T09:56:29.276Z,8.94
2018-03-24T09:58:57.863Z,9.25
2018-03-24T10:01:26.526Z,8.86
2018-03-24T10:03:59.158Z,9.06
2018-03-24T10:06:28.150Z,9.14
2018-03-24T10:08:56.954Z,9.13
2018-03-24T10:11:25.698Z,9.43
2018-03-24T10:14:00.448Z,9.66
2018-03-24T10:16:29.768Z,9.48
2018-03-24T10:18:58.966Z,9.54
2018-03-24T10:24:29.150Z,9.57
2018-03-24T10:26:57.730Z,9.67
2018-03-24T10:29:27.269Z,9.71
2018-03-24T10:31:56.044Z,9.81
2018-03-24T10:34:25.632Z,9.91
2018-03-24T10:36:54.367Z,9.95
2018-03-24T10:39:23.483Z,9.99
2018-03-24T10:41:52.426Z,9.99
2018-03-24T10:44:22.474Z,9.96
2018-03-24T10:46:51.224Z,10.06
2018-03-24T10:49:20.156Z,9.90
2018-03-24T10:51:48.683Z,9.78
2018-03-24T10:54:17.739Z,10.06
2018-03-24T10:56:46.447Z,10.27
2018-03-24T10:59:15.034Z,10.06
2018-03-24T11:01:42.459Z,10.00
2018-03-24T11:04:11.377Z,9.98
2018-03-24T11:06:41.033Z,9.89
2018-03-24T11:09:10.051Z,10.00
2018-03-24T11:11:38.629Z,9.66
2018-03-24T11:14:08.229Z,9.42
2018-03-24T11:16:38.029Z,9.51
2018-03-24T11:19:07.123Z,9.47
2018-03-24T11:21:35.700Z,9.77
2018-03-24T11:24:04.471Z,10.13
2018-03-24T11:26:33.311Z,10.50
2018-03-24T11:29:02.321Z,10.25
2018-03-24T11:31:32.257Z,9.98
2018-03-24T11:34:01.600Z,9.87
2018-03-24T11:36:30.226Z,10.20
2018-03-24T11:39:01.848Z,10.09
2018-03-24T11:41:31.011Z,9.81
2018-03-24T11:44:00.463Z,9.74
2018-03-24T11:46:29.490Z,9.76
2018-03-24T11:48:58.811Z,9.74
2018-03-24T11:51:27.407Z,9.86
2018-03-24T11:53:55.657Z,10.55
2018-03-24T11:56:24.812Z,11.31
2018-03-24T11:58:52.928Z,11.94
2018-03-24T12:01:22.365Z,11.83
2018-03-24T12:03:51.469Z,11.04
2018-03-24T12:06:20.464Z,10.22
2018-03-24T12:08:49.754Z,10.35
2018-03-24T12:11:18.542Z,10.67
2018-03-24T12:13:48.407Z,10.39
2018-03-24T12:16:17.193Z,10.19
2018-03-24T12:18:48.468Z,10.25
2018-03-24T12:21:19.170Z,10.41
2018-03-24T12:23:49.716Z,10.29
2018-03-24T12:26:19.199Z,10.14
2018-03-24T12:28:48.425Z,10.45
2018-03-24T12:31:17.199Z,10.66
2018-03-24T12:33:47.148Z,10.61
2018-03-24T12:36:17.212Z,10.25
2018-03-24T12:38:44.902Z,10.61
2018-03-24T12:41:13.927Z,10.56
2018-03-24T12:43:43.315Z,10.78
2018-03-24T12:46:14.395Z,10.50
2018-03-24T12:48:41.925Z,10.42
2018-03-24T12:51:23.572Z,10.78
2018-03-24T12:53:52.803Z,10.88
2018-03-24T12:56:20.509Z,10.77
2018-03-24T12:58:47.931Z,10.70
2018-03-24T13:01:15.342Z,10.92
2018-03-24T13:03:42.830Z,10.94
2018-03-24T13:06:10.246Z,11.33
2018-03-24T13:08:37.665Z,11.46
2018-03-24T13:11:05.093Z,11.43
2018-03-24T13:13:32.510Z,11.58
2018-03-24T13:15:59.926Z,11.96
2018-03-24T13:18:27.336Z,11.93
2018-03-24T13:20:54.767Z,11.62
2018-03-24T13:23:22.188Z,11.52
2018-03-24T13:25:49.602Z,11.53
2018-03-24T13:28:17.054Z,11.55
2018-03-24T13:30:44.509Z,11.50
2018-03-24T13:33:11.975Z,11.35
2018-03-24T13:35:39.432Z,11.28
2018-03-24T13:38:07.025Z,11.44
2018-03-24T13:40:34.495Z,11.07
2018-03-24T13:43:01.923Z,11.16
2018-03-24T13:45:29.346Z,11.49
2018-03-24T13:47:56.823Z,11.61
2018-03-24T13:50:24.270Z,11.65
2018-03-24T13:52:51.674Z,11.53
2018-03-24T13:55:19.110Z,11.95
2018-03-24T13:57:46.647Z,11.65
2018-03-24T14:00:16.177Z,11.74
2018-03-24T14:02:44.586Z,11.64
2018-03-24T14:05:12.018Z,11.69
2018-03-24T14:07:39.450Z,11.66
2018-03-24T14:10:06.928Z,11.59
2018-03-24T14:12:34.391Z,11.66
2018-03-24T14:15:01.830Z,11.56
2018-03-24T14:17:29.289Z,12.01
2018-03-24T14:19:57.044Z,11.88
2018-03-24T14:22:24.507Z,12.13
2018-03-24T14:24:51.968Z,12.16
2018-03-24T14:27:19.417Z,11.98
2018-03-24T14:29:46.875Z,11.53
2018-03-24T14:32:14.336Z,11.22
2018-03-24T14:34:41.833Z,11.35
2018-03-24T14:37:09.253Z,11.31
2018-03-24T14:39:36.745Z,11.34
2018-03-24T14:42:04.170Z,11.34
2018-03-24T14:44:31.622Z,11.30
2018-03-24T14:46:59.079Z,11.36
2018-03-24T14:49:26.539Z,11.44
2018-03-24T14:51:54.005Z,11.26
2018-03-24T14:54:21.453Z,11.22
2018-03-24T14:56:48.917Z,11.34
2018-03-24T14:59:16.703Z,11.40
2018-03-24T15:01:44.148Z,11.48
2018-03-24T15:04:11.932Z,11.38
2018-03-24T15:06:39.382Z,11.33
2018-03-24T15:09:06.818Z,11.42
2018-03-24T15:11:34.374Z,11.52
2018-03-24T15:14:01.828Z,11.53
2018-03-24T15:16:29.279Z,11.42
2018-03-24T15:18:56.677Z,11.34
2018-03-24T15:21:24.114Z,11.43
2018-03-24T15:23:51.600Z,11.51
2018-03-24T15:26:19.034Z,11.34
2018-03-24T15:28:59.003Z,11.33
2018-03-24T15:31:38.232Z,11.27
2018-03-24T15:34:17.644Z,11.37
2018-03-24T15:36:46.909Z,11.42
2018-03-24T15:39:14.539Z,11.34
2018-03-24T15:41:41.909Z,11.23
2018-03-24T15:44:09.334Z,11.29
2018-03-24T15:46:36.781Z,11.27
2018-03-24T15:49:04.238Z,11.30
2018-03-24T15:51:31.912Z,11.24
2018-03-24T15:53:59.328Z,11.26
2018-03-24T15:56:26.742Z,11.30
2018-03-24T15:58:54.163Z,11.23
2018-03-24T16:01:21.574Z,11.26
2018-03-24T16:03:48.997Z,11.14
2018-03-24T16:06:16.440Z,11.12
2018-03-24T16:08:44.001Z,11.05
2018-03-24T16:11:11.546Z,11.06
2018-03-24T16:13:38.944Z,11.08
2018-03-24T16:16:06.373Z,11.08
2018-03-24T16:18:33.786Z,11.11
2018-03-24T16:21:01.202Z,11.03
2018-03-24T16:23:28.655Z,10.97
2018-03-24T16:25:56.099Z,10.95
2018-03-24T16:28:23.568Z,10.99
2018-03-24T16:30:51.018Z,10.87
2018-03-24T16:33:18.878Z,10.89
2018-03-24T16:35:46.375Z,10.86
2018-03-24T16:38:13.799Z,10.86
2018-03-24T16:40:41.246Z,10.71
2018-03-24T16:43:08.670Z,10.71
2018-03-24T16:45:36.086Z,10.52
2018-03-24T16:48:03.530Z,10.49
2018-03-24T16:50:30.988Z,10.43
2018-03-24T16:52:58.464Z,10.36
2018-03-24T16:55:25.904Z,10.33
2018-03-24T16:57:53.360Z,10.30
2018-03-24T17:00:20.828Z,10.19
2018-03-24T17:02:48.286Z,10.08
2018-03-24T17:05:15.736Z,9.99
2018-03-24T17:07:43.191Z,9.84
2018-03-24T17:10:10.649Z,9.77
2018-03-24T17:12:38.110Z,9.74
2018-03-24T17:15:05.568Z,9.79
2018-03-24T17:17:33.035Z,9.63
2018-03-24T17:20:00.598Z,9.47
2018-03-24T17:22:28.029Z,9.31
2018-03-24T17:24:55.487Z,9.11
2018-03-24T17:27:22.924Z,9.08
2018-03-24T17:29:50.619Z,8.97
2018-03-24T17:32:18.077Z,8.75
2018-03-24T17:34:45.753Z,8.48
2018-03-24T17:37:13.332Z,8.43
2018-03-24T17:39:40.762Z,8.43
2018-03-24T17:42:08.215Z,8.40
2018-03-24T17:44:35.702Z,8.25
2018-03-24T17:47:03.554Z,8.15
2018-03-24T17:49:30.998Z,7.95
2018-03-24T17:51:58.399Z,7.87
2018-03-24T17:54:25.898Z,7.76
2018-03-24T17:56:53.296Z,7.66
2018-03-24T17:59:20.742Z,7.55
2018-03-24T18:01:48.154Z,7.54
2018-03-24T18:04:15.583Z,7.45
2018-03-24T18:06:42.999Z,7.36
2018-03-24T18:09:10.437Z,7.34
2018-03-24T18:11:37.852Z,7.23
2018-03-24T18:14:06.131Z,7.16
2018-03-24T18:16:33.786Z,7.06
2018-03-24T18:19:01.210Z,6.94
2018-03-24T18:21:28.690Z,6.85
2018-03-24T18:23:56.115Z,6.85
2018-03-24T18:26:23.796Z,6.80
2018-03-24T18:28:51.592Z,6.77
2018-03-24T18:31:19.026Z,6.70
2018-03-24T18:33:46.463Z,6.62
2018-03-24T18:36:14.546Z,6.62
2018-03-24T18:38:41.993Z,6.69
2018-03-24T18:41:09.389Z,6.59
2018-03-24T18:43:36.825Z,6.45
2018-03-24T18:46:04.274Z,6.36
2018-03-24T18:48:31.752Z,6.32
2018-03-24T18:50:59.214Z,6.27
2018-03-24T18:53:26.733Z,6.21
2018-03-24T18:55:54.218Z,6.16
2018-03-24T18:58:22.326Z,6.05
2018-03-24T19:00:49.807Z,5.96
2018-03-24T19:03:17.359Z,5.98
2018-03-24T19:05:46.096Z,5.90
2018-03-24T19:08:13.568Z,5.83
2018-03-24T19:10:41.101Z,5.87
2018-03-24T19:13:08.554Z,5.78
2018-03-24T19:15:35.959Z,5.79
2018-03-24T19:18:03.402Z,5.78
2018-03-24T19:20:30.850Z,5.83
2018-03-24T19:22:58.294Z,6.00
2018-03-24T19:25:25.744Z,6.06
2018-03-24T19:27:53.203Z,6.14
2018-03-24T19:30:20.665Z,6.11
2018-03-24T19:32:48.122Z,6.11
2018-03-24T19:35:15.584Z,6.09
2018-03-24T19:37:43.034Z,5.98
2018-03-24T19:40:10.504Z,5.92
2018-03-24T19:42:37.969Z,5.97
2018-03-24T19:45:05.518Z,5.94
2018-03-24T19:47:32.956Z,5.98
2018-03-24T19:50:00.370Z,6.00
2018-03-24T19:52:27.837Z,6.05
2018-03-24T19:54:55.246Z,6.12
2018-03-24T19:57:22.724Z,6.11
2018-03-24T19:59:50.171Z,6.05
2018-03-24T20:02:17.687Z,6.05
2018-03-24T20:04:45.160Z,6.07
2018-03-24T20:07:12.564Z,6.07
2018-03-24T20:09:39.980Z,6.05
2018-03-24T20:12:07.447Z,5.94
2018-03-24T20:14:34.857Z,5.90
2018-03-24T20:17:02.283Z,5.86
2018-03-24T20:19:30.530Z,5.80
2018-03-24T20:21:57.986Z,5.73
2018-03-24T20:24:25.395Z,5.69
2018-03-24T20:26:52.913Z,5.66
2018-03-24T20:29:20.362Z,5.58
2018-03-24T20:31:48.055Z,5.52
2018-03-24T20:34:15.502Z,5.50
2018-03-24T20:36:42.988Z,5.41
2018-03-24T20:39:10.410Z,5.43
2018-03-24T20:41:37.861Z,5.34
2018-03-24T20:44:05.322Z,5.27
2018-03-24T20:46:32.793Z,5.26
2018-03-24T20:49:00.243Z,5.22
2018-03-24T20:51:27.781Z,5.17
2018-03-24T20:53:55.547Z,5.17
2018-03-24T20:56:22.978Z,5.21
2018-03-24T20:58:50.403Z,5.13
2018-03-24T21:01:17.862Z,5.08
2018-03-24T21:03:45.540Z,4.97
2018-03-24T21:06:18.160Z,4.97
2018-03-24T21:08:49.538Z,4.87
2018-03-24T21:11:19.893Z,4.91
2018-03-24T21:13:59.982Z,4.83
2018-03-24T21:16:35.407Z,4.65
2018-03-24T21:19:08.769Z,4.51
2018-03-24T21:21:37.864Z,4.48
2018-03-24T21:26:53.049Z,4.65
2018-03-24T21:29:20.457Z,4.69
2018-03-24T21:31:47.864Z,4.74
2018-03-24T21:34:15.288Z,4.78
2018-03-24T21:36:42.700Z,4.77
2018-03-24T21:39:10.129Z,4.94
2018-03-24T21:41:38.517Z,4.89
2018-03-24T21:44:06.152Z,4.69
2018-03-24T21:46:33.566Z,4.74
2018-03-24T21:49:00.992Z,4.64
2018-03-24T21:51:28.397Z,4.48
2018-03-24T21:53:56.662Z,4.65
2018-03-24T21:56:24.076Z,4.64
2018-03-24T21:58:51.525Z,4.89
2018-03-24T22:02:39.620Z,4.78
2018-03-24T22:05:07.204Z,4.64
2018-03-24T22:07:34.614Z,4.35
2018-03-24T22:10:02.066Z,4.23
2018-03-24T22:12:29.795Z,4.21
2018-03-24T22:14:58.229Z,4.08
2018-03-24T22:17:25.655Z,4.00
2018-03-24T22:19:53.073Z,3.92
2018-03-24T22:22:20.567Z,3.76
2018-03-24T22:24:47.996Z,3.72
2018-03-24T22:27:15.428Z,3.70
2018-03-24T22:29:42.970Z,3.62
2018-03-24T22:32:10.413Z,3.48
2018-03-24T22:34:37.832Z,3.47
2018-03-24T22:37:05.235Z,3.28
2018-03-24T22:39:32.661Z,3.07
2018-03-24T22:42:00.069Z,3.11
2018-03-24T22:44:27.492Z,3.06
2018-03-24T22:46:55.544Z,3.07
2018-03-24T22:49:23.019Z,3.06
2018-03-24T22:51:51.241Z,3.03
2018-03-24T22:54:18.653Z,2.95
2018-03-24T22:56:46.914Z,2.76
2018-03-24T22:59:14.332Z,2.61
2018-03-24T23:01:42.586Z,2.56
2018-03-24T23:04:10.003Z,2.51
2018-03-24T23:06:37.846Z,2.51
2018-03-24T23:09:05.532Z,2.53
2018-03-24T23:11:33.007Z,2.44
2018-03-24T23:14:00.867Z,2.34
2018-03-24T23:16:28.274Z,2.32
2018-03-24T23:18:55.686Z,2.29
2018-03-24T23:21:23.111Z,2.26
2018-03-24T23:23:50.513Z,2.36
2018-03-24T23:26:17.944Z,2.37
2018-03-24T23:28:45.351Z,2.36
2018-03-24T23:31:12.766Z,2.36
2018-03-24T23:33:40.224Z,2.34
2018-03-24T23:36:07.643Z,2.40
2018-03-24T23:38:35.054Z,2.46
2018-03-24T23:41:02.474Z,2.53
2018-03-24T23:43:29.879Z,2.56
2018-03-24T23:45:57.697Z,2.60
2018-03-24T23:48:25.094Z,2.70
2018-03-24T23:50:52.505Z,2.74
2018-03-24T23:53:19.917Z,2.78
2018-03-24T23:55:47.342Z,2.77
2018-03-24T23:58:14.788Z,2.71
